sensor_id;sensor_type;location;lat;lon;timestamp;P1;durP1;ratioP1;P2;durP2;ratioP2
68357;SDS011;55276;53.260;50.222;2022-12-29T00:02:00;14.32;;;4.47;;
68357;SDS011;55276;53.260;50.222;2022-12-29T00:04:31;9.95;;;3.88;;
68357;SDS011;55276;53.260;50.222;2022-12-29T00:07:00;15.23;;;5.00;;
68357;SDS011;55276;53.260;50.222;2022-12-29T00:09:30;12.13;;;4.57;;
68357;SDS011;55276;53.260;50.222;2022-12-29T00:12:01;10.68;;;4.20;;
68357;SDS011;55276;53.260;50.222;2022-12-29T00:14:29;14.88;;;4.13;;
68357;SDS011;55276;53.260;50.222;2022-12-29T00:17:14;12.50;;;4.35;;
68357;SDS011;55276;53.260;50.222;2022-12-29T00:19:40;13.40;;;4.32;;
68357;SDS011;55276;53.260;50.222;2022-12-29T00:22:25;13.80;;;4.18;;
68357;SDS011;55276;53.260;50.222;2022-12-29T00:25:10;14.20;;;4.80;;
68357;SDS011;55276;53.260;50.222;2022-12-29T00:28:01;13.50;;;3.83;;
68357;SDS011;55276;53.260;50.222;2022-12-29T00:30:46;11.63;;;4.05;;
68357;SDS011;55276;53.260;50.222;2022-12-29T00:33:32;13.05;;;4.45;;
68357;SDS011;55276;53.260;50.222;2022-12-29T00:36:31;12.73;;;4.00;;
68357;SDS011;55276;53.260;50.222;2022-12-29T00:39:03;15.27;;;4.13;;
68357;SDS011;55276;53.260;50.222;2022-12-29T00:41:54;11.85;;;3.55;;
68357;SDS011;55276;53.260;50.222;2022-12-29T00:44:39;12.13;;;4.60;;
68357;SDS011;55276;53.260;50.222;2022-12-29T00:47:06;15.35;;;5.00;;
68357;SDS011;55276;53.260;50.222;2022-12-29T00:49:37;13.15;;;4.18;;
68357;SDS011;55276;53.260;50.222;2022-12-29T00:52:08;13.00;;;4.10;;
68357;SDS011;55276;53.260;50.222;2022-12-29T00:54:36;11.98;;;4.55;;
68357;SDS011;55276;53.260;50.222;2022-12-29T00:57:07;11.73;;;3.85;;
68357;SDS011;55276;53.260;50.222;2022-12-29T00:59:37;10.02;;;4.07;;
68357;SDS011;55276;53.260;50.222;2022-12-29T01:02:07;12.38;;;3.97;;
68357;SDS011;55276;53.260;50.222;2022-12-29T01:04:36;11.02;;;3.75;;
68357;SDS011;55276;53.260;50.222;2022-12-29T01:07:07;17.27;;;4.20;;
68357;SDS011;55276;53.260;50.222;2022-12-29T01:09:37;16.02;;;4.93;;
68357;SDS011;55276;53.260;50.222;2022-12-29T01:12:22;14.40;;;5.45;;
68357;SDS011;55276;53.260;50.222;2022-12-29T01:15:08;12.07;;;3.95;;
68357;SDS011;55276;53.260;50.222;2022-12-29T01:17:38;15.43;;;5.43;;
68357;SDS011;55276;53.260;50.222;2022-12-29T01:20:09;13.68;;;4.20;;
68357;SDS011;55276;53.260;50.222;2022-12-29T01:22:38;14.30;;;4.15;;
68357;SDS011;55276;53.260;50.222;2022-12-29T01:25:09;12.60;;;4.18;;
68357;SDS011;55276;53.260;50.222;2022-12-29T01:27:39;10.98;;;4.28;;
68357;SDS011;55276;53.260;50.222;2022-12-29T01:30:10;12.35;;;4.00;;
68357;SDS011;55276;53.260;50.222;2022-12-29T01:32:40;11.13;;;4.40;;
68357;SDS011;55276;53.260;50.222;2022-12-29T01:35:09;16.58;;;4.53;;
68357;SDS011;55276;53.260;50.222;2022-12-29T01:37:41;12.43;;;3.97;;
68357;SDS011;55276;53.260;50.222;2022-12-29T01:40:13;11.48;;;4.25;;
68357;SDS011;55276;53.260;50.222;2022-12-29T01:42:41;14.25;;;4.10;;
68357;SDS011;55276;53.260;50.222;2022-12-29T01:45:17;12.55;;;4.05;;
68357;SDS011;55276;53.260;50.222;2022-12-29T01:47:45;9.13;;;3.83;;
68357;SDS011;55276;53.260;50.222;2022-12-29T01:53:00;13.70;;;4.35;;
68357;SDS011;55276;53.260;50.222;2022-12-29T01:55:33;10.85;;;4.03;;
68357;SDS011;55276;53.260;50.222;2022-12-29T01:58:04;11.00;;;3.97;;
68357;SDS011;55276;53.260;50.222;2022-12-29T02:00:34;12.32;;;4.40;;
68357;SDS011;55276;53.260;50.222;2022-12-29T02:03:02;12.93;;;4.15;;
68357;SDS011;55276;53.260;50.222;2022-12-29T02:05:36;15.90;;;4.43;;
68357;SDS011;55276;53.260;50.222;2022-12-29T02:08:12;13.52;;;4.72;;
68357;SDS011;55276;53.260;50.222;2022-12-29T02:10:43;12.25;;;3.75;;
68357;SDS011;55276;53.260;50.222;2022-12-29T02:13:16;15.43;;;4.80;;
68357;SDS011;55276;53.260;50.222;2022-12-29T02:18:48;9.70;;;3.38;;
68357;SDS011;55276;53.260;50.222;2022-12-29T02:27:51;11.38;;;3.75;;
68357;SDS011;55276;53.260;50.222;2022-12-29T02:36:30;13.70;;;3.75;;
68357;SDS011;55276;53.260;50.222;2022-12-29T02:47:32;12.85;;;4.15;;
68357;SDS011;55276;53.260;50.222;2022-12-29T02:50:18;11.82;;;3.55;;
68357;SDS011;55276;53.260;50.222;2022-12-29T02:53:02;12.95;;;4.07;;
68357;SDS011;55276;53.260;50.222;2022-12-29T02:55:32;9.50;;;3.92;;
68357;SDS011;55276;53.260;50.222;2022-12-29T02:58:31;9.95;;;3.85;;
68357;SDS011;55276;53.260;50.222;2022-12-29T03:03:34;12.75;;;3.80;;
68357;SDS011;55276;53.260;50.222;2022-12-29T03:09:03;10.20;;;3.47;;
68357;SDS011;55276;53.260;50.222;2022-12-29T03:11:33;10.40;;;3.83;;
68357;SDS011;55276;53.260;50.222;2022-12-29T03:14:27;14.30;;;4.40;;
68357;SDS011;55276;53.260;50.222;2022-12-29T03:22:29;15.85;;;4.15;;
68357;SDS011;55276;53.260;50.222;2022-12-29T03:25:14;15.20;;;4.28;;
68357;SDS011;55276;53.260;50.222;2022-12-29T03:27:45;13.68;;;4.28;;
68357;SDS011;55276;53.260;50.222;2022-12-29T03:30:16;14.82;;;4.28;;
68357;SDS011;55276;53.260;50.222;2022-12-29T03:35:13;12.93;;;3.88;;
68357;SDS011;55276;53.260;50.222;2022-12-29T03:37:44;15.90;;;4.90;;
68357;SDS011;55276;53.260;50.222;2022-12-29T03:40:19;12.13;;;4.43;;
68357;SDS011;55276;53.260;50.222;2022-12-29T03:42:51;14.93;;;4.60;;
68357;SDS011;55276;53.260;50.222;2022-12-29T03:45:19;11.13;;;4.72;;
68357;SDS011;55276;53.260;50.222;2022-12-29T03:47:45;13.43;;;4.60;;
68357;SDS011;55276;53.260;50.222;2022-12-29T03:50:12;17.00;;;4.68;;
68357;SDS011;55276;53.260;50.222;2022-12-29T03:52:38;12.90;;;3.95;;
68357;SDS011;55276;53.260;50.222;2022-12-29T03:55:05;12.77;;;4.50;;
68357;SDS011;55276;53.260;50.222;2022-12-29T03:57:35;12.98;;;4.25;;
68357;SDS011;55276;53.260;50.222;2022-12-29T04:00:06;10.55;;;3.90;;
68357;SDS011;55276;53.260;50.222;2022-12-29T04:02:36;13.65;;;4.82;;
68357;SDS011;55276;53.260;50.222;2022-12-29T04:05:02;16.00;;;4.60;;
68357;SDS011;55276;53.260;50.222;2022-12-29T04:07:28;13.48;;;4.50;;
68357;SDS011;55276;53.260;50.222;2022-12-29T04:09:54;13.50;;;4.60;;
68357;SDS011;55276;53.260;50.222;2022-12-29T04:12:20;13.20;;;4.43;;
68357;SDS011;55276;53.260;50.222;2022-12-29T04:14:47;18.17;;;4.53;;
68357;SDS011;55276;53.260;50.222;2022-12-29T04:17:14;12.70;;;4.43;;
68357;SDS011;55276;53.260;50.222;2022-12-29T04:19:40;11.52;;;3.92;;
68357;SDS011;55276;53.260;50.222;2022-12-29T04:22:07;11.90;;;4.45;;
68357;SDS011;55276;53.260;50.222;2022-12-29T04:24:45;16.77;;;4.00;;
68357;SDS011;55276;53.260;50.222;2022-12-29T04:27:15;18.17;;;4.88;;
68357;SDS011;55276;53.260;50.222;2022-12-29T04:29:41;15.57;;;4.60;;
68357;SDS011;55276;53.260;50.222;2022-12-29T04:32:08;14.52;;;4.38;;
68357;SDS011;55276;53.260;50.222;2022-12-29T04:34:41;11.20;;;4.18;;
68357;SDS011;55276;53.260;50.222;2022-12-29T04:37:07;13.63;;;4.07;;
68357;SDS011;55276;53.260;50.222;2022-12-29T04:39:36;17.15;;;4.72;;
68357;SDS011;55276;53.260;50.222;2022-12-29T04:42:07;14.13;;;4.60;;
68357;SDS011;55276;53.260;50.222;2022-12-29T04:44:33;17.67;;;4.88;;
68357;SDS011;55276;53.260;50.222;2022-12-29T04:46:59;13.52;;;4.85;;
68357;SDS011;55276;53.260;50.222;2022-12-29T04:49:25;11.82;;;4.35;;
68357;SDS011;55276;53.260;50.222;2022-12-29T04:51:51;13.90;;;4.88;;
68357;SDS011;55276;53.260;50.222;2022-12-29T04:54:17;17.35;;;4.63;;
68357;SDS011;55276;53.260;50.222;2022-12-29T04:56:43;11.18;;;3.80;;
68357;SDS011;55276;53.260;50.222;2022-12-29T04:59:10;12.80;;;5.28;;
68357;SDS011;55276;53.260;50.222;2022-12-29T05:01:36;12.82;;;4.35;;
68357;SDS011;55276;53.260;50.222;2022-12-29T05:04:03;11.50;;;4.30;;
68357;SDS011;55276;53.260;50.222;2022-12-29T05:06:29;14.13;;;4.82;;
68357;SDS011;55276;53.260;50.222;2022-12-29T05:08:55;13.90;;;5.05;;
68357;SDS011;55276;53.260;50.222;2022-12-29T05:11:21;11.45;;;3.97;;
68357;SDS011;55276;53.260;50.222;2022-12-29T05:13:47;16.17;;;5.43;;
68357;SDS011;55276;53.260;50.222;2022-12-29T05:16:15;11.65;;;4.25;;
68357;SDS011;55276;53.260;50.222;2022-12-29T05:18:41;13.25;;;4.60;;
68357;SDS011;55276;53.260;50.222;2022-12-29T05:21:07;15.18;;;4.25;;
68357;SDS011;55276;53.260;50.222;2022-12-29T05:23:33;12.80;;;4.28;;
68357;SDS011;55276;53.260;50.222;2022-12-29T05:25:59;11.73;;;4.22;;
68357;SDS011;55276;53.260;50.222;2022-12-29T05:28:26;13.20;;;4.68;;
68357;SDS011;55276;53.260;50.222;2022-12-29T05:30:57;15.85;;;4.80;;
68357;SDS011;55276;53.260;50.222;2022-12-29T05:33:26;12.00;;;4.38;;
68357;SDS011;55276;53.260;50.222;2022-12-29T05:35:52;11.70;;;4.32;;
68357;SDS011;55276;53.260;50.222;2022-12-29T05:38:18;11.43;;;4.15;;
68357;SDS011;55276;53.260;50.222;2022-12-29T05:40:51;12.93;;;4.50;;
68357;SDS011;55276;53.260;50.222;2022-12-29T05:43:19;17.23;;;5.53;;
68357;SDS011;55276;53.260;50.222;2022-12-29T05:45:48;13.75;;;4.10;;
68357;SDS011;55276;53.260;50.222;2022-12-29T05:48:15;11.38;;;3.75;;
68357;SDS011;55276;53.260;50.222;2022-12-29T05:50:41;12.55;;;3.80;;
68357;SDS011;55276;53.260;50.222;2022-12-29T05:53:07;10.95;;;4.20;;
68357;SDS011;55276;53.260;50.222;2022-12-29T05:55:34;9.70;;;4.25;;
68357;SDS011;55276;53.260;50.222;2022-12-29T05:58:00;13.85;;;4.10;;
68357;SDS011;55276;53.260;50.222;2022-12-29T06:00:27;13.18;;;4.43;;
68357;SDS011;55276;53.260;50.222;2022-12-29T06:03:11;12.73;;;3.72;;
68357;SDS011;55276;53.260;50.222;2022-12-29T06:05:38;12.13;;;3.88;;
68357;SDS011;55276;53.260;50.222;2022-12-29T06:08:15;16.50;;;4.07;;
68357;SDS011;55276;53.260;50.222;2022-12-29T06:10:43;10.13;;;4.10;;
68357;SDS011;55276;53.260;50.222;2022-12-29T06:13:12;9.98;;;4.18;;
68357;SDS011;55276;53.260;50.222;2022-12-29T06:15:38;11.27;;;3.72;;
68357;SDS011;55276;53.260;50.222;2022-12-29T06:18:06;9.30;;;4.07;;
68357;SDS011;55276;53.260;50.222;2022-12-29T06:20:32;14.25;;;4.60;;
68357;SDS011;55276;53.260;50.222;2022-12-29T06:22:59;12.45;;;4.22;;
68357;SDS011;55276;53.260;50.222;2022-12-29T06:25:25;11.15;;;3.78;;
68357;SDS011;55276;53.260;50.222;2022-12-29T06:27:51;13.00;;;4.20;;
68357;SDS011;55276;53.260;50.222;2022-12-29T06:30:17;11.27;;;4.07;;
68357;SDS011;55276;53.260;50.222;2022-12-29T06:32:47;13.75;;;4.43;;
68357;SDS011;55276;53.260;50.222;2022-12-29T06:35:17;11.38;;;3.83;;
68357;SDS011;55276;53.260;50.222;2022-12-29T06:37:43;15.18;;;4.68;;
68357;SDS011;55276;53.260;50.222;2022-12-29T06:40:11;9.45;;;4.43;;
68357;SDS011;55276;53.260;50.222;2022-12-29T06:42:40;10.93;;;3.88;;
68357;SDS011;55276;53.260;50.222;2022-12-29T06:45:07;13.50;;;4.60;;
68357;SDS011;55276;53.260;50.222;2022-12-29T06:47:52;10.93;;;4.03;;
68357;SDS011;55276;53.260;50.222;2022-12-29T06:50:18;15.65;;;4.35;;
68357;SDS011;55276;53.260;50.222;2022-12-29T06:52:44;16.15;;;4.90;;
68357;SDS011;55276;53.260;50.222;2022-12-29T06:55:10;15.35;;;4.47;;
68357;SDS011;55276;53.260;50.222;2022-12-29T06:57:37;12.32;;;4.68;;
68357;SDS011;55276;53.260;50.222;2022-12-29T07:00:03;11.25;;;4.20;;
68357;SDS011;55276;53.260;50.222;2022-12-29T07:02:30;12.82;;;4.10;;
68357;SDS011;55276;53.260;50.222;2022-12-29T07:04:56;10.25;;;4.05;;
68357;SDS011;55276;53.260;50.222;2022-12-29T07:07:24;10.52;;;4.20;;
68357;SDS011;55276;53.260;50.222;2022-12-29T07:09:50;13.60;;;4.22;;
68357;SDS011;55276;53.260;50.222;2022-12-29T07:12:17;14.05;;;4.20;;
68357;SDS011;55276;53.260;50.222;2022-12-29T07:14:43;21.20;;;4.53;;
68357;SDS011;55276;53.260;50.222;2022-12-29T07:17:09;20.77;;;4.45;;
68357;SDS011;55276;53.260;50.222;2022-12-29T07:19:39;13.95;;;4.53;;
68357;SDS011;55276;53.260;50.222;2022-12-29T07:22:20;17.27;;;4.43;;
68357;SDS011;55276;53.260;50.222;2022-12-29T07:24:46;10.02;;;4.05;;
68357;SDS011;55276;53.260;50.222;2022-12-29T07:27:13;12.13;;;4.20;;
68357;SDS011;55276;53.260;50.222;2022-12-29T07:29:43;16.55;;;4.75;;
68357;SDS011;55276;53.260;50.222;2022-12-29T07:32:21;12.77;;;4.65;;
68357;SDS011;55276;53.260;50.222;2022-12-29T07:34:49;17.00;;;5.00;;
68357;SDS011;55276;53.260;50.222;2022-12-29T07:37:19;15.00;;;4.93;;
68357;SDS011;55276;53.260;50.222;2022-12-29T07:39:56;15.65;;;4.38;;
68357;SDS011;55276;53.260;50.222;2022-12-29T07:42:23;10.97;;;4.73;;
68357;SDS011;55276;53.260;50.222;2022-12-29T07:44:49;12.57;;;4.15;;
68357;SDS011;55276;53.260;50.222;2022-12-29T07:47:15;12.07;;;4.18;;
68357;SDS011;55276;53.260;50.222;2022-12-29T07:49:56;11.05;;;4.07;;
68357;SDS011;55276;53.260;50.222;2022-12-29T07:52:31;10.20;;;4.23;;
68357;SDS011;55276;53.260;50.222;2022-12-29T07:54:57;11.00;;;4.03;;
68357;SDS011;55276;53.260;50.222;2022-12-29T07:57:25;11.93;;;4.22;;
68357;SDS011;55276;53.260;50.222;2022-12-29T07:59:59;11.00;;;3.92;;
68357;SDS011;55276;53.260;50.222;2022-12-29T08:02:28;12.85;;;4.60;;
68357;SDS011;55276;53.260;50.222;2022-12-29T08:04:55;10.20;;;3.90;;
68357;SDS011;55276;53.260;50.222;2022-12-29T08:07:32;11.25;;;4.35;;
68357;SDS011;55276;53.260;50.222;2022-12-29T08:10:00;11.60;;;4.28;;
68357;SDS011;55276;53.260;50.222;2022-12-29T08:12:29;14.23;;;4.55;;
68357;SDS011;55276;53.260;50.222;2022-12-29T08:14:55;17.05;;;5.05;;
68357;SDS011;55276;53.260;50.222;2022-12-29T08:17:39;12.80;;;4.60;;
68357;SDS011;55276;53.260;50.222;2022-12-29T08:20:06;14.57;;;4.30;;
68357;SDS011;55276;53.260;50.222;2022-12-29T08:22:43;15.43;;;4.57;;
68357;SDS011;55276;53.260;50.222;2022-12-29T08:25:12;13.80;;;4.78;;
68357;SDS011;55276;53.260;50.222;2022-12-29T08:27:42;13.00;;;4.38;;
68357;SDS011;55276;53.260;50.222;2022-12-29T08:30:09;13.30;;;4.80;;
68357;SDS011;55276;53.260;50.222;2022-12-29T08:32:45;16.20;;;4.45;;
68357;SDS011;55276;53.260;50.222;2022-12-29T08:38:55;14.52;;;4.90;;
68357;SDS011;55276;53.260;50.222;2022-12-29T08:41:23;15.48;;;5.10;;
68357;SDS011;55276;53.260;50.222;2022-12-29T08:43:56;15.82;;;5.28;;
68357;SDS011;55276;53.260;50.222;2022-12-29T08:46:22;14.88;;;4.82;;
68357;SDS011;55276;53.260;50.222;2022-12-29T08:48:53;12.90;;;4.60;;
68357;SDS011;55276;53.260;50.222;2022-12-29T08:51:34;12.20;;;4.95;;
68357;SDS011;55276;53.260;50.222;2022-12-29T08:54:06;11.57;;;4.50;;
68357;SDS011;55276;53.260;50.222;2022-12-29T08:56:33;14.85;;;4.50;;
68357;SDS011;55276;53.260;50.222;2022-12-29T08:59:03;15.00;;;4.45;;
68357;SDS011;55276;53.260;50.222;2022-12-29T09:01:32;10.93;;;4.30;;
68357;SDS011;55276;53.260;50.222;2022-12-29T09:04:04;12.52;;;4.75;;
68357;SDS011;55276;53.260;50.222;2022-12-29T09:06:31;20.33;;;5.63;;
68357;SDS011;55276;53.260;50.222;2022-12-29T09:09:15;14.02;;;4.88;;
68357;SDS011;55276;53.260;50.222;2022-12-29T09:11:45;18.15;;;5.53;;
68357;SDS011;55276;53.260;50.222;2022-12-29T09:14:11;29.58;;;10.90;;
68357;SDS011;55276;53.260;50.222;2022-12-29T09:16:55;17.15;;;5.13;;
68357;SDS011;55276;53.260;50.222;2022-12-29T09:19:46;11.60;;;4.72;;
68357;SDS011;55276;53.260;50.222;2022-12-29T09:22:18;13.25;;;5.10;;
68357;SDS011;55276;53.260;50.222;2022-12-29T09:24:56;13.55;;;4.97;;
68357;SDS011;55276;53.260;50.222;2022-12-29T09:27:22;12.10;;;4.78;;
68357;SDS011;55276;53.260;50.222;2022-12-29T09:29:55;13.38;;;4.95;;
68357;SDS011;55276;53.260;50.222;2022-12-29T09:32:36;14.57;;;5.20;;
68357;SDS011;55276;53.260;50.222;2022-12-29T09:35:03;17.30;;;5.65;;
68357;SDS011;55276;53.260;50.222;2022-12-29T09:37:30;13.07;;;5.07;;
68357;SDS011;55276;53.260;50.222;2022-12-29T09:39:58;18.13;;;6.00;;
68357;SDS011;55276;53.260;50.222;2022-12-29T09:42:31;11.73;;;4.65;;
68357;SDS011;55276;53.260;50.222;2022-12-29T09:47:35;12.48;;;4.93;;
68357;SDS011;55276;53.260;50.222;2022-12-29T09:50:24;12.48;;;5.30;;
68357;SDS011;55276;53.260;50.222;2022-12-29T09:53:08;12.80;;;5.28;;
68357;SDS011;55276;53.260;50.222;2022-12-29T09:55:47;12.95;;;5.40;;
68357;SDS011;55276;53.260;50.222;2022-12-29T09:58:36;13.85;;;5.63;;
68357;SDS011;55276;53.260;50.222;2022-12-29T10:01:07;15.45;;;5.53;;
68357;SDS011;55276;53.260;50.222;2022-12-29T10:03:48;15.65;;;6.25;;
68357;SDS011;55276;53.260;50.222;2022-12-29T10:06:42;11.95;;;5.43;;
68357;SDS011;55276;53.260;50.222;2022-12-29T10:09:26;14.65;;;5.68;;
68357;SDS011;55276;53.260;50.222;2022-12-29T10:12:16;21.85;;;6.13;;
68357;SDS011;55276;53.260;50.222;2022-12-29T10:15:14;14.75;;;6.15;;
68357;SDS011;55276;53.260;50.222;2022-12-29T10:18:09;17.77;;;7.40;;
68357;SDS011;55276;53.260;50.222;2022-12-29T10:23:39;19.60;;;6.70;;
68357;SDS011;55276;53.260;50.222;2022-12-29T10:26:11;14.98;;;6.28;;
68357;SDS011;55276;53.260;50.222;2022-12-29T10:31:16;15.52;;;6.53;;
68357;SDS011;55276;53.260;50.222;2022-12-29T10:33:48;17.17;;;7.05;;
68357;SDS011;55276;53.260;50.222;2022-12-29T10:39:02;20.55;;;7.20;;
68357;SDS011;55276;53.260;50.222;2022-12-29T10:41:43;17.88;;;6.65;;
68357;SDS011;55276;53.260;50.222;2022-12-29T10:44:31;20.80;;;7.90;;
68357;SDS011;55276;53.260;50.222;2022-12-29T10:47:02;17.00;;;7.07;;
68357;SDS011;55276;53.260;50.222;2022-12-29T10:49:40;19.10;;;7.55;;
68357;SDS011;55276;53.260;50.222;2022-12-29T10:52:08;16.05;;;6.90;;
68357;SDS011;55276;53.260;50.222;2022-12-29T10:54:42;17.25;;;6.68;;
68357;SDS011;55276;53.260;50.222;2022-12-29T10:57:25;18.88;;;7.22;;
68357;SDS011;55276;53.260;50.222;2022-12-29T10:59:54;16.50;;;6.80;;
68357;SDS011;55276;53.260;50.222;2022-12-29T11:02:37;19.92;;;7.25;;
68357;SDS011;55276;53.260;50.222;2022-12-29T11:08:01;17.98;;;6.43;;
68357;SDS011;55276;53.260;50.222;2022-12-29T11:13:33;17.80;;;5.90;;
68357;SDS011;55276;53.260;50.222;2022-12-29T11:15:51;17.73;;;6.22;;
68357;SDS011;55276;53.260;50.222;2022-12-29T11:20:56;16.88;;;6.50;;
68357;SDS011;55276;53.260;50.222;2022-12-29T11:23:36;17.33;;;6.35;;
68357;SDS011;55276;53.260;50.222;2022-12-29T11:28:38;13.63;;;5.45;;
68357;SDS011;55276;53.260;50.222;2022-12-29T11:31:07;14.00;;;5.40;;
68357;SDS011;55276;53.260;50.222;2022-12-29T11:33:35;14.05;;;5.15;;
68357;SDS011;55276;53.260;50.222;2022-12-29T11:38:40;14.65;;;5.53;;
68357;SDS011;55276;53.260;50.222;2022-12-29T11:41:13;11.20;;;5.07;;
68357;SDS011;55276;53.260;50.222;2022-12-29T11:43:46;15.98;;;6.35;;
68357;SDS011;55276;53.260;50.222;2022-12-29T11:46:16;46.15;;;19.08;;
68357;SDS011;55276;53.260;50.222;2022-12-29T11:49:03;14.00;;;5.82;;
68357;SDS011;55276;53.260;50.222;2022-12-29T11:51:43;16.80;;;5.93;;
68357;SDS011;55276;53.260;50.222;2022-12-29T11:54:48;14.65;;;6.15;;
68357;SDS011;55276;53.260;50.222;2022-12-29T11:57:12;17.65;;;6.68;;
68357;SDS011;55276;53.260;50.222;2022-12-29T12:00:03;17.38;;;6.50;;
68357;SDS011;55276;53.260;50.222;2022-12-29T12:02:48;20.48;;;6.43;;
68357;SDS011;55276;53.260;50.222;2022-12-29T12:07:55;18.23;;;6.53;;
68357;SDS011;55276;53.260;50.222;2022-12-29T12:11:10;19.77;;;6.72;;
68357;SDS011;55276;53.260;50.222;2022-12-29T12:13:27;20.75;;;7.32;;
68357;SDS011;55276;53.260;50.222;2022-12-29T12:16:06;20.35;;;7.60;;
68357;SDS011;55276;53.260;50.222;2022-12-29T12:18:47;22.70;;;8.93;;
68357;SDS011;55276;53.260;50.222;2022-12-29T12:29:24;23.63;;;8.73;;
68357;SDS011;55276;53.260;50.222;2022-12-29T12:32:01;19.95;;;7.60;;
68357;SDS011;55276;53.260;50.222;2022-12-29T12:34:40;20.23;;;7.97;;
68357;SDS011;55276;53.260;50.222;2022-12-29T12:53:44;21.58;;;7.93;;
68357;SDS011;55276;53.260;50.222;2022-12-29T13:01:55;17.75;;;7.38;;
68357;SDS011;55276;53.260;50.222;2022-12-29T13:07:00;16.63;;;6.97;;
68357;SDS011;55276;53.260;50.222;2022-12-29T13:29:20;20.00;;;7.78;;
68357;SDS011;55276;53.260;50.222;2022-12-29T13:34:43;19.15;;;7.53;;
68357;SDS011;55276;53.260;50.222;2022-12-29T13:37:35;22.80;;;8.23;;
68357;SDS011;55276;53.260;50.222;2022-12-29T13:40:12;23.95;;;8.38;;
68357;SDS011;55276;53.260;50.222;2022-12-29T13:42:42;21.95;;;8.25;;
68357;SDS011;55276;53.260;50.222;2022-12-29T13:45:16;25.45;;;8.85;;
68357;SDS011;55276;53.260;50.222;2022-12-29T13:47:51;24.27;;;9.80;;
68357;SDS011;55276;53.260;50.222;2022-12-29T13:50:22;20.73;;;8.52;;
68357;SDS011;55276;53.260;50.222;2022-12-29T13:55:49;23.55;;;9.68;;
68357;SDS011;55276;53.260;50.222;2022-12-29T14:06:26;25.05;;;9.85;;
68357;SDS011;55276;53.260;50.222;2022-12-29T14:08:57;23.75;;;10.13;;
68357;SDS011;55276;53.260;50.222;2022-12-29T14:11:47;24.30;;;9.05;;
68357;SDS011;55276;53.260;50.222;2022-12-29T14:14:21;27.45;;;8.85;;
68357;SDS011;55276;53.260;50.222;2022-12-29T14:16:50;22.42;;;9.13;;
68357;SDS011;55276;53.260;50.222;2022-12-29T14:19:26;24.30;;;9.80;;
68357;SDS011;55276;53.260;50.222;2022-12-29T14:21:57;28.33;;;10.50;;
68357;SDS011;55276;53.260;50.222;2022-12-29T14:25:55;23.35;;;9.43;;
68357;SDS011;55276;53.260;50.222;2022-12-29T14:28:16;20.90;;;9.20;;
68357;SDS011;55276;53.260;50.222;2022-12-29T14:34:59;30.70;;;10.82;;
68357;SDS011;55276;53.260;50.222;2022-12-29T14:37:45;36.42;;;10.07;;
68357;SDS011;55276;53.260;50.222;2022-12-29T14:42:49;24.55;;;9.75;;
68357;SDS011;55276;53.260;50.222;2022-12-29T14:47:53;26.05;;;10.05;;
68357;SDS011;55276;53.260;50.222;2022-12-29T14:53:04;18.75;;;8.18;;
68357;SDS011;55276;53.260;50.222;2022-12-29T14:58:22;20.40;;;8.50;;
68357;SDS011;55276;53.260;50.222;2022-12-29T15:00:53;19.67;;;7.70;;
68357;SDS011;55276;53.260;50.222;2022-12-29T15:03:21;24.13;;;9.18;;
68357;SDS011;55276;53.260;50.222;2022-12-29T15:08:42;23.27;;;8.63;;
68357;SDS011;55276;53.260;50.222;2022-12-29T15:19:53;25.27;;;9.23;;
68357;SDS011;55276;53.260;50.222;2022-12-29T15:22:36;19.38;;;6.50;;
68357;SDS011;55276;53.260;50.222;2022-12-29T15:25:12;19.27;;;7.03;;
68357;SDS011;55276;53.260;50.222;2022-12-29T15:27:41;17.08;;;7.00;;
68357;SDS011;55276;53.260;50.222;2022-12-29T15:30:12;12.70;;;6.25;;
68357;SDS011;55276;53.260;50.222;2022-12-29T15:32:42;16.30;;;6.40;;
68357;SDS011;55276;53.260;50.222;2022-12-29T15:38:00;17.58;;;8.13;;
68357;SDS011;55276;53.260;50.222;2022-12-29T15:40:38;19.25;;;7.38;;
68357;SDS011;55276;53.260;50.222;2022-12-29T15:45:51;15.48;;;6.90;;
68357;SDS011;55276;53.260;50.222;2022-12-29T15:48:21;17.92;;;7.60;;
68357;SDS011;55276;53.260;50.222;2022-12-29T15:50:49;15.48;;;6.88;;
68357;SDS011;55276;53.260;50.222;2022-12-29T15:53:20;14.65;;;6.50;;
68357;SDS011;55276;53.260;50.222;2022-12-29T15:56:05;15.77;;;6.30;;
68357;SDS011;55276;53.260;50.222;2022-12-29T16:01:57;15.43;;;6.27;;
68357;SDS011;55276;53.260;50.222;2022-12-29T16:04:33;13.38;;;5.78;;
68357;SDS011;55276;53.260;50.222;2022-12-29T16:10:49;15.10;;;5.78;;
68357;SDS011;55276;53.260;50.222;2022-12-29T16:13:34;13.23;;;5.70;;
68357;SDS011;55276;53.260;50.222;2022-12-29T16:21:16;15.57;;;5.78;;
68357;SDS011;55276;53.260;50.222;2022-12-29T16:23:51;14.80;;;5.38;;
68357;SDS011;55276;53.260;50.222;2022-12-29T16:29:41;19.83;;;6.65;;
68357;SDS011;55276;53.260;50.222;2022-12-29T16:32:28;14.75;;;6.15;;
68357;SDS011;55276;53.260;50.222;2022-12-29T16:35:10;12.80;;;5.93;;
68357;SDS011;55276;53.260;50.222;2022-12-29T16:40:50;14.93;;;5.45;;
68357;SDS011;55276;53.260;50.222;2022-12-29T16:49:35;14.15;;;5.78;;
68357;SDS011;55276;53.260;50.222;2022-12-29T16:52:10;17.23;;;5.93;;
68357;SDS011;55276;53.260;50.222;2022-12-29T16:54:39;13.98;;;5.80;;
68357;SDS011;55276;53.260;50.222;2022-12-29T16:57:06;15.32;;;5.18;;
68357;SDS011;55276;53.260;50.222;2022-12-29T16:59:42;13.53;;;5.60;;
68357;SDS011;55276;53.260;50.222;2022-12-29T17:02:14;15.27;;;5.57;;
68357;SDS011;55276;53.260;50.222;2022-12-29T17:04:43;16.25;;;6.40;;
68357;SDS011;55276;53.260;50.222;2022-12-29T17:07:18;12.65;;;5.32;;
68357;SDS011;55276;53.260;50.222;2022-12-29T17:09:46;15.98;;;5.43;;
68357;SDS011;55276;53.260;50.222;2022-12-29T17:12:17;13.02;;;5.13;;
68357;SDS011;55276;53.260;50.222;2022-12-29T17:14:51;12.40;;;5.35;;
68357;SDS011;55276;53.260;50.222;2022-12-29T17:17:44;14.18;;;5.22;;
68357;SDS011;55276;53.260;50.222;2022-12-29T17:20:24;14.77;;;5.55;;
68357;SDS011;55276;53.260;50.222;2022-12-29T17:22:53;13.80;;;5.20;;
68357;SDS011;55276;53.260;50.222;2022-12-29T17:25:23;15.37;;;5.97;;
68357;SDS011;55276;53.260;50.222;2022-12-29T17:28:00;14.98;;;5.90;;
68357;SDS011;55276;53.260;50.222;2022-12-29T17:30:35;15.05;;;6.10;;
68357;SDS011;55276;53.260;50.222;2022-12-29T17:33:06;15.05;;;5.93;;
68357;SDS011;55276;53.260;50.222;2022-12-29T17:35:39;16.85;;;5.93;;
68357;SDS011;55276;53.260;50.222;2022-12-29T17:38:16;12.88;;;5.72;;
68357;SDS011;55276;53.260;50.222;2022-12-29T17:40:48;15.98;;;5.90;;
68357;SDS011;55276;53.260;50.222;2022-12-29T17:43:15;15.48;;;5.78;;
68357;SDS011;55276;53.260;50.222;2022-12-29T17:45:41;16.48;;;6.20;;
68357;SDS011;55276;53.260;50.222;2022-12-29T17:48:13;15.50;;;6.07;;
68357;SDS011;55276;53.260;50.222;2022-12-29T17:50:40;17.33;;;6.03;;
68357;SDS011;55276;53.260;50.222;2022-12-29T17:53:10;15.20;;;5.68;;
68357;SDS011;55276;53.260;50.222;2022-12-29T17:55:44;14.70;;;6.15;;
68357;SDS011;55276;53.260;50.222;2022-12-29T17:58:18;15.75;;;6.18;;
68357;SDS011;55276;53.260;50.222;2022-12-29T18:00:46;12.77;;;5.53;;
68357;SDS011;55276;53.260;50.222;2022-12-29T18:03:15;18.00;;;6.07;;
68357;SDS011;55276;53.260;50.222;2022-12-29T18:05:46;14.43;;;5.72;;
68357;SDS011;55276;53.260;50.222;2022-12-29T18:08:14;17.42;;;6.13;;